sensor_id;sensor_type;location;lat;lon;timestamp;pressure;altitude;pressure_sealevel;temperature;humidity
46724;BME280;32463;48.298;11.620;2024-01-25T00:00:58;97287.13;;;7.22;100.00
46724;BME280;32463;48.298;11.620;2024-01-25T00:03:44;97283.81;;;7.09;100.00
46724;BME280;32463;48.298;11.620;2024-01-25T00:06:31;97277.47;;;7.13;100.00
46724;BME280;32463;48.298;11.620;2024-01-25T00:09:18;97278.13;;;7.28;100.00
46724;BME280;32463;48.298;11.620;2024-01-25T00:12:05;97288.63;;;7.14;100.00
46724;BME280;32463;48.298;11.620;2024-01-25T00:14:53;97283.94;;;7.19;100.00
46724;BME280;32463;48.298;11.620;2024-01-25T00:17:41;97273.63;;;7.19;100.00
46724;BME280;32463;48.298;11.620;2024-01-25T00:20:28;97278.78;;;7.19;100.00
46724;BME280;32463;48.298;11.620;2024-01-25T00:23:15;97270.47;;;7.15;100.00
46724;BME280;32463;48.298;11.620;2024-01-25T00:26:01;97267.88;;;7.15;100.00
46724;BME280;32463;48.298;11.620;2024-01-25T00:28:48;97270.56;;;7.14;100.00
46724;BME280;32463;48.298;11.620;2024-01-25T00:31:35;97260.03;;;7.17;100.00
46724;BME280;32463;48.298;11.620;2024-01-25T00:34:22;97265.09;;;7.29;100.00
46724;BME280;32463;48.298;11.620;2024-01-25T00:37:10;97260.16;;;7.26;100.00
46724;BME280;32463;48.298;11.620;2024-01-25T00:39:57;97256.97;;;7.12;100.00
46724;BME280;32463;48.298;11.620;2024-01-25T00:42:45;97253.69;;;7.09;100.00
46724;BME280;32463;48.298;11.620;2024-01-25T00:45:34;97260.75;;;7.30;100.00
46724;BME280;32463;48.298;11.620;2024-01-25T00:48:21;97267.66;;;7.18;100.00
46724;BME280;32463;48.298;11.620;2024-01-25T00:51:14;97268.66;;;7.04;100.00
46724;BME280;32463;48.298;11.620;2024-01-25T00:54:02;97261.06;;;7.03;100.00
46724;BME280;32463;48.298;11.620;2024-01-25T00:56:49;97274.19;;;7.00;100.00
46724;BME280;32463;48.298;11.620;2024-01-25T00:59:38;97271.75;;;7.21;100.00
46724;BME280;32463;48.298;11.620;2024-01-25T01:02:25;97272.53;;;6.99;100.00
46724;BME280;32463;48.298;11.620;2024-01-25T01:05:16;97281.03;;;7.23;100.00
46724;BME280;32463;48.298;11.620;2024-01-25T01:08:03;97271.38;;;7.14;100.00
46724;BME280;32463;48.298;11.620;2024-01-25T01:10:50;97280.50;;;7.07;100.00
46724;BME280;32463;48.298;11.620;2024-01-25T01:13:38;97282.38;;;7.05;100.00
46724;BME280;32463;48.298;11.620;2024-01-25T01:16:25;97284.97;;;7.05;100.00
46724;BME280;32463;48.298;11.620;2024-01-25T01:19:11;97296.47;;;7.12;100.00
46724;BME280;32463;48.298;11.620;2024-01-25T01:21:58;97288.72;;;7.12;100.00
46724;BME280;32463;48.298;11.620;2024-01-25T01:24:45;97294.38;;;7.17;100.00
46724;BME280;32463;48.298;11.620;2024-01-25T01:27:32;97290.16;;;7.16;100.00
46724;BME280;32463;48.298;11.620;2024-01-25T01:30:18;97297.19;;;7.14;100.00
46724;BME280;32463;48.298;11.620;2024-01-25T01:33:06;97298.44;;;7.08;100.00
46724;BME280;32463;48.298;11.620;2024-01-25T01:35:52;97302.78;;;7.08;100.00
46724;BME280;32463;48.298;11.620;2024-01-25T01:38:40;97295.97;;;7.07;100.00
46724;BME280;32463;48.298;11.620;2024-01-25T01:41:27;97304.66;;;7.06;100.00
46724;BME280;32463;48.298;11.620;2024-01-25T01:44:14;97292.00;;;7.03;100.00
46724;BME280;32463;48.298;11.620;2024-01-25T01:47:00;97287.91;;;7.12;100.00
46724;BME280;32463;48.298;11.620;2024-01-25T01:49:48;97287.19;;;6.98;100.00
46724;BME280;32463;48.298;11.620;2024-01-25T01:52:35;97290.09;;;6.94;100.00
46724;BME280;32463;48.298;11.620;2024-01-25T01:55:23;97294.59;;;7.03;100.00
46724;BME280;32463;48.298;11.620;2024-01-25T01:58:10;97293.88;;;7.12;100.00
46724;BME280;32463;48.298;11.620;2024-01-25T02:00:57;97299.03;;;7.12;100.00
46724;BME280;32463;48.298;11.620;2024-01-25T02:03:45;97295.53;;;7.13;100.00
46724;BME280;32463;48.298;11.620;2024-01-25T02:06:33;97291.44;;;7.10;100.00
46724;BME280;32463;48.298;11.620;2024-01-25T02:09:21;97289.34;;;7.16;100.00
46724;BME280;32463;48.298;11.620;2024-01-25T02:12:08;97287.84;;;7.24;100.00
46724;BME280;32463;48.298;11.620;2024-01-25T02:14:55;97276.47;;;7.27;100.00
46724;BME280;32463;48.298;11.620;2024-01-25T02:17:42;97283.50;;;7.25;100.00
46724;BME280;32463;48.298;11.620;2024-01-25T02:20:28;97275.72;;;7.14;100.00
46724;BME280;32463;48.298;11.620;2024-01-25T02:23:15;97280.34;;;7.32;100.00
46724;BME280;32463;48.298;11.620;2024-01-25T02:26:02;97276.91;;;7.21;100.00
46724;BME280;32463;48.298;11.620;2024-01-25T02:28:49;97284.63;;;7.09;100.00
46724;BME280;32463;48.298;11.620;2024-01-25T02:31:35;97267.16;;;7.02;100.00
46724;BME280;32463;48.298;11.620;2024-01-25T02:34:22;97259.88;;;7.07;100.00
46724;BME280;32463;48.298;11.620;2024-01-25T02:37:09;97275.84;;;7.01;100.00
46724;BME280;32463;48.298;11.620;2024-01-25T02:39:57;97272.06;;;7.05;100.00
46724;BME280;32463;48.298;11.620;2024-01-25T02:42:44;97272.53;;;6.99;100.00
46724;BME280;32463;48.298;11.620;2024-01-25T02:45:31;97282.38;;;7.05;100.00
46724;BME280;32463;48.298;11.620;2024-01-25T02:48:18;97281.72;;;7.14;100.00
46724;BME280;32463;48.298;11.620;2024-01-25T02:51:04;97273.50;;;7.09;100.00
46724;BME280;32463;48.298;11.620;2024-01-25T02:53:51;97261.06;;;7.14;100.00
46724;BME280;32463;48.298;11.620;2024-01-25T02:56:38;97258.53;;;7.25;100.00
46724;BME280;32463;48.298;11.620;2024-01-25T02:59:25;97248.69;;;7.30;100.00
46724;BME280;32463;48.298;11.620;2024-01-25T03:02:12;97255.25;;;7.23;100.00
46724;BME280;32463;48.298;11.620;2024-01-25T03:04:59;97246.78;;;7.21;100.00
46724;BME280;32463;48.298;11.620;2024-01-25T03:07:45;97243.97;;;7.13;100.00
46724;BME280;32463;48.298;11.620;2024-01-25T03:10:32;97229.78;;;7.19;100.00
46724;BME280;32463;48.298;11.620;2024-01-25T03:13:19;97223.34;;;7.13;100.00
46724;BME280;32463;48.298;11.620;2024-01-25T03:16:06;97213.72;;;7.15;100.00
46724;BME280;32463;48.298;11.620;2024-01-25T03:18:53;97224.28;;;7.23;100.00
46724;BME280;32463;48.298;11.620;2024-01-25T03:21:40;97229.22;;;7.26;100.00
46724;BME280;32463;48.298;11.620;2024-01-25T03:24:26;97222.19;;;7.28;100.00
46724;BME280;32463;48.298;11.620;2024-01-25T03:27:13;97232.50;;;7.28;100.00
46724;BME280;32463;48.298;11.620;2024-01-25T03:30:00;97221.81;;;7.22;100.00
46724;BME280;32463;48.298;11.620;2024-01-25T03:32:47;97234.16;;;7.29;100.00
46724;BME280;32463;48.298;11.620;2024-01-25T03:35:34;97237.91;;;7.25;100.00
46724;BME280;32463;48.298;11.620;2024-01-25T03:38:20;97243.88;;;7.37;100.00
46724;BME280;32463;48.298;11.620;2024-01-25T03:41:07;97246.13;;;7.30;100.00
46724;BME280;32463;48.298;11.620;2024-01-25T03:43:54;97247.25;;;7.37;100.00
46724;BME280;32463;48.298;11.620;2024-01-25T03:46:41;97257.59;;;7.26;100.00
46724;BME280;32463;48.298;11.620;2024-01-25T03:49:28;97257.09;;;7.21;100.00
46724;BME280;32463;48.298;11.620;2024-01-25T03:52:15;97250.06;;;7.34;100.00
46724;BME280;32463;48.298;11.620;2024-01-25T03:55:02;97259.94;;;7.29;100.00
46724;BME280;32463;48.298;11.620;2024-01-25T03:57:50;97270.69;;;7.12;100.00
46724;BME280;32463;48.298;11.620;2024-01-25T04:00:36;97260.13;;;7.15;100.00
46724;BME280;32463;48.298;11.620;2024-01-25T04:03:23;97272.84;;;7.40;100.00
46724;BME280;32463;48.298;11.620;2024-01-25T04:06:10;97272.13;;;7.27;100.00
46724;BME280;32463;48.298;11.620;2024-01-25T04:08:57;97270.50;;;7.49;100.00
46724;BME280;32463;48.298;11.620;2024-01-25T04:11:44;97277.06;;;7.53;100.00
46724;BME280;32463;48.298;11.620;2024-01-25T04:14:31;97284.81;;;7.30;100.00
46724;BME280;32463;48.298;11.620;2024-01-25T04:17:17;97285.25;;;7.24;100.00
46724;BME280;32463;48.298;11.620;2024-01-25T04:20:05;97287.59;;;7.27;100.00
46724;BME280;32463;48.298;11.620;2024-01-25T04:22:52;97287.59;;;7.27;100.00
46724;BME280;32463;48.298;11.620;2024-01-25T04:25:39;97295.56;;;7.24;100.00
46724;BME280;32463;48.298;11.620;2024-01-25T04:28:25;97295.09;;;7.19;100.00
46724;BME280;32463;48.298;11.620;2024-01-25T04:31:12;97296.72;;;7.20;100.00
46724;BME280;32463;48.298;11.620;2024-01-25T04:33:59;97299.50;;;7.06;100.00
46724;BME280;32463;48.298;11.620;2024-01-25T04:36:46;97299.03;;;7.12;100.00
46724;BME280;32463;48.298;11.620;2024-01-25T04:39:32;97311.00;;;7.13;100.00
46724;BME280;32463;48.298;11.620;2024-01-25T04:42:19;97310.63;;;7.06;100.00
46724;BME280;32463;48.298;11.620;2024-01-25T04:45:06;97305.19;;;7.22;100.00
46724;BME280;32463;48.298;11.620;2024-01-25T04:47:53;97311.75;;;7.26;100.00
46724;BME280;32463;48.298;11.620;2024-01-25T04:50:40;97316.81;;;7.28;100.00
46724;BME280;32463;48.298;11.620;2024-01-25T04:53:27;97321.75;;;7.07;100.00
46724;BME280;32463;48.298;11.620;2024-01-25T04:56:14;97314.66;;;7.22;100.00
46724;BME280;32463;48.298;11.620;2024-01-25T04:59:01;97328.56;;;7.08;100.00
46724;BME280;32463;48.298;11.620;2024-01-25T05:01:47;97331.69;;;7.24;100.00
46724;BME280;32463;48.298;11.620;2024-01-25T05:04:34;97327.22;;;7.26;100.00
46724;BME280;32463;48.298;11.620;2024-01-25T05:07:21;97324.88;;;7.23;100.00
46724;BME280;32463;48.298;11.620;2024-01-25T05:10:08;97326.63;;;7.23;100.00
46724;BME280;32463;48.298;11.620;2024-01-25T05:12:55;97332.28;;;7.28;100.00
46724;BME280;32463;48.298;11.620;2024-01-25T05:15:42;97337.09;;;7.32;100.00
46724;BME280;32463;48.298;11.620;2024-01-25T05:18:29;97331.22;;;7.41;100.00
46724;BME280;32463;48.298;11.620;2024-01-25T05:21:15;97344.34;;;7.27;100.00
46724;BME280;32463;48.298;11.620;2024-01-25T05:24:02;97340.41;;;7.57;100.00
46724;BME280;32463;48.298;11.620;2024-01-25T05:26:49;97348.81;;;7.36;100.00
46724;BME280;32463;48.298;11.620;2024-01-25T05:29:36;97344.34;;;7.27;100.00
46724;BME280;32463;48.298;11.620;2024-01-25T05:32:23;97352.56;;;7.32;100.00
46724;BME280;32463;48.298;11.620;2024-01-25T05:35:10;97351.09;;;7.17;100.00
46724;BME280;32463;48.298;11.620;2024-01-25T05:37:56;97343.66;;;7.36;100.00
46724;BME280;32463;48.298;11.620;2024-01-25T05:40:43;97345.06;;;7.40;100.00
46724;BME280;32463;48.298;11.620;2024-01-25T05:43:30;97359.13;;;7.36;100.00
46724;BME280;32463;48.298;11.620;2024-01-25T05:46:17;97365.47;;;7.43;100.00
46724;BME280;32463;48.298;11.620;2024-01-25T05:49:03;97362.31;;;7.05;100.00
46724;BME280;32463;48.298;11.620;2024-01-25T05:51:50;97371.69;;;7.06;100.00
46724;BME280;32463;48.298;11.620;2024-01-25T05:54:37;97381.25;;;6.93;100.00
46724;BME280;32463;48.298;11.620;2024-01-25T05:57:24;97385.03;;;6.76;100.00
46724;BME280;32463;48.298;11.620;2024-01-25T06:00:12;97388.31;;;6.78;100.00
46724;BME280;32463;48.298;11.620;2024-01-25T06:03:00;97381.47;;;6.90;100.00
46724;BME280;32463;48.298;11.620;2024-01-25T06:05:47;97390.44;;;6.60;100.00
46724;BME280;32463;48.298;11.620;2024-01-25T06:08:34;97396.03;;;6.54;100.00
46724;BME280;32463;48.298;11.620;2024-01-25T06:11:21;97394.09;;;6.45;100.00
46724;BME280;32463;48.298;11.620;2024-01-25T06:14:08;97397.31;;;6.36;100.00
46724;BME280;32463;48.298;11.620;2024-01-25T06:16:55;97405.16;;;6.34;100.00
46724;BME280;32463;48.298;11.620;2024-01-25T06:19:42;97414.84;;;6.31;100.00
46724;BME280;32463;48.298;11.620;2024-01-25T06:22:29;97417.22;;;6.21;100.00
46724;BME280;32463;48.298;11.620;2024-01-25T06:25:16;97416.72;;;6.03;100.00
46724;BME280;32463;48.298;11.620;2024-01-25T06:28:03;97420.41;;;6.37;100.00
46724;BME280;32463;48.298;11.620;2024-01-25T06:30:50;97431.75;;;6.22;100.00
46724;BME280;32463;48.298;11.620;2024-01-25T06:33:37;97434.63;;;6.30;100.00
46724;BME280;32463;48.298;11.620;2024-01-25T06:36:23;97443.91;;;6.07;100.00
46724;BME280;32463;48.298;11.620;2024-01-25T06:39:10;97453.06;;;6.12;100.00
46724;BME280;32463;48.298;11.620;2024-01-25T06:41:57;97454.19;;;6.33;100.00
46724;BME280;32463;48.298;11.620;2024-01-25T06:44:44;97467.38;;;6.16;100.00
46724;BME280;32463;48.298;11.620;2024-01-25T06:47:31;97457.78;;;6.30;100.00
46724;BME280;32463;48.298;11.620;2024-01-25T06:50:18;97461.16;;;6.43;100.00
46724;BME280;32463;48.298;11.620;2024-01-25T06:53:05;97462.84;;;6.32;100.00
46724;BME280;32463;48.298;11.620;2024-01-25T06:55:51;97465.72;;;6.27;100.00
46724;BME280;32463;48.298;11.620;2024-01-25T06:58:38;97461.56;;;6.50;100.00
46724;BME280;32463;48.298;11.620;2024-01-25T07:01:25;97468.97;;;6.67;100.00
46724;BME280;32463;48.298;11.620;2024-01-25T07:04:13;97473.63;;;6.50;100.00
46724;BME280;32463;48.298;11.620;2024-01-25T07:07:00;97465.25;;;6.71;100.00
46724;BME280;32463;48.298;11.620;2024-01-25T07:09:47;97464.25;;;6.61;100.00
46724;BME280;32463;48.298;11.620;2024-01-25T07:12:33;97480.53;;;6.62;100.00
46724;BME280;32463;48.298;11.620;2024-01-25T07:15:20;97486.34;;;6.40;100.00
46724;BME280;32463;48.298;11.620;2024-01-25T07:18:07;97483.66;;;6.41;100.00
46724;BME280;32463;48.298;11.620;2024-01-25T07:20:54;97494.16;;;6.38;100.00
46724;BME280;32463;48.298;11.620;2024-01-25T07:23:41;97500.50;;;6.58;100.00
46724;BME280;32463;48.298;11.620;2024-01-25T07:26:28;97511.75;;;6.57;100.00
46724;BME280;32463;48.298;11.620;2024-01-25T07:29:15;97516.50;;;6.63;100.00
46724;BME280;32463;48.298;11.620;2024-01-25T07:32:03;97516.38;;;6.52;100.00
46724;BME280;32463;48.298;11.620;2024-01-25T07:34:50;97518.84;;;6.54;100.00
46724;BME280;32463;48.298;11.620;2024-01-25T07:37:37;97523.81;;;6.44;100.00
46724;BME280;32463;48.298;11.620;2024-01-25T07:40:24;97526.69;;;6.65;100.00
46724;BME280;32463;48.298;11.620;2024-01-25T07:43:11;97523.41;;;6.37;100.00
46724;BME280;32463;48.298;11.620;2024-01-25T07:45:57;97519.41;;;6.33;100.00
46724;BME280;32463;48.298;11.620;2024-01-25T07:48:44;97521.16;;;6.33;100.00
46724;BME280;32463;48.298;11.620;2024-01-25T07:51:31;97534.94;;;6.57;100.00
46724;BME280;32463;48.298;11.620;2024-01-25T07:54:18;97535.97;;;6.55;100.00
46724;BME280;32463;48.298;11.620;2024-01-25T07:57:04;97529.47;;;6.49;100.00
46724;BME280;32463;48.298;11.620;2024-01-25T07:59:51;97527.81;;;6.48;100.00
46724;BME280;32463;48.298;11.620;2024-01-25T08:02:38;97525.03;;;6.51;100.00
46724;BME280;32463;48.298;11.620;2024-01-25T08:05:26;97526.91;;;6.49;100.00
46724;BME280;32463;48.298;11.620;2024-01-25T08:08:13;97512.28;;;6.37;100.00
46724;BME280;32463;48.298;11.620;2024-01-25T08:11:00;97492.47;;;6.50;100.00
46724;BME280;32463;48.298;11.620;2024-01-25T08:13:47;97488.56;;;6.57;100.00
46724;BME280;32463;48.298;11.620;2024-01-25T08:16:34;97482.19;;;6.50;100.00
46724;BME280;32463;48.298;11.620;2024-01-25T08:19:21;97484.84;;;6.49;100.00
46724;BME280;32463;48.298;11.620;2024-01-25T08:22:08;97500.13;;;6.39;100.00
46724;BME280;32463;48.298;11.620;2024-01-25T08:24:55;97519.50;;;6.32;100.00
46724;BME280;32463;48.298;11.620;2024-01-25T08:27:42;97534.13;;;6.31;100.00
46724;BME280;32463;48.298;11.620;2024-01-25T08:30:29;97540.09;;;6.45;100.00
46724;BME280;32463;48.298;11.620;2024-01-25T08:33:15;97545.84;;;6.48;100.00
46724;BME280;32463;48.298;11.620;2024-01-25T08:36:03;97547.91;;;6.56;100.00
46724;BME280;32463;48.298;11.620;2024-01-25T08:38:50;97552.63;;;6.74;100.00
46724;BME280;32463;48.298;11.620;2024-01-25T08:41:37;97558.72;;;6.86;100.00
46724;BME280;32463;48.298;11.620;2024-01-25T08:44:23;97552.81;;;6.97;100.00
46724;BME280;32463;48.298;11.620;2024-01-25T08:47:10;97550.72;;;7.15;100.00
46724;BME280;32463;48.298;11.620;2024-01-25T08:49:57;97546.56;;;7.25;100.00
46724;BME280;32463;48.298;11.620;2024-01-25T08:52:44;97530.88;;;7.28;100.00
46724;BME280;32463;48.298;11.620;2024-01-25T08:55:31;97531.63;;;7.41;100.00
46724;BME280;32463;48.298;11.620;2024-01-25T08:58:18;97536.63;;;7.31;100.00
46724;BME280;32463;48.298;11.620;2024-01-25T09:01:05;97537.34;;;7.33;100.00
46724;BME280;32463;48.298;11.620;2024-01-25T09:03:52;97541.34;;;7.37;100.00
46724;BME280;32463;48.298;11.620;2024-01-25T09:06:39;97543.13;;;7.61;100.00
46724;BME280;32463;48.298;11.620;2024-01-25T09:09:25;97539.13;;;7.68;100.00
46724;BME280;32463;48.298;11.620;2024-01-25T09:12:12;97556.50;;;7.66;100.00
46724;BME280;32463;48.298;11.620;2024-01-25T09:15:00;97563.97;;;7.58;100.00
46724;BME280;32463;48.298;11.620;2024-01-25T09:17:47;97564.03;;;7.69;100.00
46724;BME280;32463;48.298;11.620;2024-01-25T09:20:33;97574.31;;;7.58;100.00
46724;BME280;32463;48.298;11.620;2024-01-25T09:23:20;97583.59;;;7.60;100.00
46724;BME280;32463;48.298;11.620;2024-01-25T09:26:07;97583.69;;;7.59;100.00
46724;BME280;32463;48.298;11.620;2024-01-25T09:28:54;97579.50;;;7.93;100.00
46724;BME280;32463;48.298;11.620;2024-01-25T09:31:41;97594.44;;;8.00;100.00
46724;BME280;32463;48.298;11.620;2024-01-25T09:34:27;97595.69;;;8.30;100.00
46724;BME280;32463;48.298;11.620;2024-01-25T09:37:14;97596.38;;;8.44;100.00
46724;BME280;32463;48.298;11.620;2024-01-25T09:40:03;97600.50;;;8.69;100.00
46724;BME280;32463;48.298;11.620;2024-01-25T09:42:52;97589.19;;;8.59;100.00
46724;BME280;32463;48.298;11.620;2024-01-25T09:45:39;97589.19;;;8.59;100.00
46724;BME280;32463;48.298;11.620;2024-01-25T09:48:27;97597.19;;;8.45;100.00
46724;BME280;32463;48.298;11.620;2024-01-25T09:51:14;97602.38;;;8.67;100.00
46724;BME280;32463;48.298;11.620;2024-01-25T09:54:02;97592.44;;;9.62;100.00
46724;BME280;32463;48.298;11.620;2024-01-25T09:56:51;97603.72;;;9.72;100.00
46724;BME280;32463;48.298;11.620;2024-01-25T09:59:41;97593.25;;;9.73;100.00
46724;BME280;32463;48.298;11.620;2024-01-25T10:02:28;97599.97;;;10.08;100.00
46724;BME280;32463;48.298;11.620;2024-01-25T10:05:15;97597.63;;;9.51;100.00
46724;BME280;32463;48.298;11.620;2024-01-25T10:08:02;97599.06;;;9.55;100.00
46724;BME280;32463;48.298;11.620;2024-01-25T10:10:49;97595.53;;;9.56;100.00
46724;BME280;32463;48.298;11.620;2024-01-25T10:13:42;97602.28;;;10.11;99.80
46724;BME280;32463;48.298;11.620;2024-01-25T10:16:29;97605.25;;;10.06;97.69
46724;BME280;32463;48.298;11.620;2024-01-25T10:19:20;97597.22;;;10.62;97.81
46724;BME280;32463;48.298;11.620;2024-01-25T10:22:06;97588.84;;;10.79;94.27
46724;BME280;32463;48.298;11.620;2024-01-25T10:24:54;97596.56;;;10.49;93.71
46724;BME280;32463;48.298;11.620;2024-01-25T10:27:41;97591.38;;;10.07;92.95
46724;BME280;32463;48.298;11.620;2024-01-25T10:30:31;97589.66;;;10.18;94.18
46724;BME280;32463;48.298;11.620;2024-01-25T10:33:18;97589.72;;;10.06;94.26
46724;BME280;32463;48.298;11.620;2024-01-25T10:36:08;97578.66;;;11.37;82.73
46724;BME280;32463;48.298;11.620;2024-01-25T10:38:55;97586.41;;;12.26;77.20
46724;BME280;32463;48.298;11.620;2024-01-25T10:41:42;97587.50;;;11.75;76.94
46724;BME280;32463;48.298;11.620;2024-01-25T10:44:35;97577.56;;;11.90;73.52
46724;BME280;32463;48.298;11.620;2024-01-25T10:47:23;97572.91;;;11.34;73.28
46724;BME280;32463;48.298;11.620;2024-01-25T10:50:12;97561.13;;;12.08;71.57
46724;BME280;32463;48.298;11.620;2024-01-25T10:53:00;97543.97;;;11.38;69.82
46724;BME280;32463;48.298;11.620;2024-01-25T10:55:48;97548.38;;;10.05;74.79
46724;BME280;32463;48.298;11.620;2024-01-25T10:58:35;97554.84;;;9.78;79.80
46724;BME280;32463;48.298;11.620;2024-01-25T11:01:22;97564.44;;;9.56;82.37
46724;BME280;32463;48.298;11.620;2024-01-25T11:04:16;97559.84;;;8.71;89.66
46724;BME280;32463;48.298;11.620;2024-01-25T11:07:07;97558.25;;;9.47;88.65
46724;BME280;32463;48.298;11.620;2024-01-25T11:09:55;97537.88;;;10.38;80.20
46724;BME280;32463;48.298;11.620;2024-01-25T11:12:55;97532.13;;;10.65;75.63
46724;BME280;32463;48.298;11.620;2024-01-25T11:15:42;97538.25;;;10.95;75.90
46724;BME280;32463;48.298;11.620;2024-01-25T11:18:29;97532.78;;;11.67;70.90
46724;BME280;32463;48.298;11.620;2024-01-25T11:21:29;97532.81;;;12.05;65.93
46724;BME280;32463;48.298;11.620;2024-01-25T11:24:16;97525.34;;;13.23;62.08
46724;BME280;32463;48.298;11.620;2024-01-25T11:27:04;97519.94;;;13.34;58.32
46724;BME280;32463;48.298;11.620;2024-01-25T11:29:51;97510.59;;;14.21;55.88
46724;BME280;32463;48.298;11.620;2024-01-25T11:32:39;97513.50;;;14.61;54.22
46724;BME280;32463;48.298;11.620;2024-01-25T11:35:26;97513.06;;;14.48;54.97
46724;BME280;32463;48.298;11.620;2024-01-25T11:38:12;97505.06;;;14.75;55.23
46724;BME280;32463;48.298;11.620;2024-01-25T11:40:59;97501.81;;;15.15;54.07
46724;BME280;32463;48.298;11.620;2024-01-25T11:43:49;97503.53;;;14.91;53.04
46724;BME280;32463;48.298;11.620;2024-01-25T11:46:36;97499.56;;;13.65;56.43
46724;BME280;32463;48.298;11.620;2024-01-25T11:49:24;97491.41;;;13.86;55.90
46724;BME280;32463;48.298;11.620;2024-01-25T11:52:11;97488.16;;;14.54;54.05
46724;BME280;32463;48.298;11.620;2024-01-25T11:55:02;97484.13;;;14.59;55.58
46724;BME280;32463;48.298;11.620;2024-01-25T11:57:49;97486.13;;;13.96;56.45
46724;BME280;32463;48.298;11.620;2024-01-25T12:00:36;97485.78;;;13.37;58.16
46724;BME280;32463;48.298;11.620;2024-01-25T12:03:23;97486.66;;;12.73;60.05
46724;BME280;32463;48.298;11.620;2024-01-25T12:06:12;97481.34;;;12.65;60.20
46724;BME280;32463;48.298;11.620;2024-01-25T12:09:08;97481.25;;;13.12;57.75
46724;BME280;32463;48.298;11.620;2024-01-25T12:11:55;97465.22;;;13.70;55.87
46724;BME280;32463;48.298;11.620;2024-01-25T12:14:42;97466.03;;;14.14;54.52
46724;BME280;32463;48.298;11.620;2024-01-25T12:17:30;97449.69;;;15.06;52.59
46724;BME280;32463;48.298;11.620;2024-01-25T12:20:17;97448.81;;;15.47;51.87
46724;BME280;32463;48.298;11.620;2024-01-25T12:23:05;97453.94;;;15.90;50.64
46724;BME280;32463;48.298;11.620;2024-01-25T12:25:52;97456.22;;;15.85;51.70
46724;BME280;32463;48.298;11.620;2024-01-25T12:28:38;97458.59;;;16.27;51.42
46724;BME280;32463;48.298;11.620;2024-01-25T12:31:25;97454.69;;;14.83;52.65
46724;BME280;32463;48.298;11.620;2024-01-25T12:34:15;97442.63;;;14.82;52.93
46724;BME280;32463;48.298;11.620;2024-01-25T12:37:02;97449.13;;;14.44;54.33
46724;BME280;32463;48.298;11.620;2024-01-25T12:39:53;97455.75;;;13.87;54.40
46724;BME280;32463;48.298;11.620;2024-01-25T12:42:40;97452.53;;;14.19;53.88
46724;BME280;32463;48.298;11.620;2024-01-25T12:45:27;97452.44;;;13.59;54.68
46724;BME280;32463;48.298;11.620;2024-01-25T12:48:14;97453.41;;;13.58;55.14
46724;BME280;32463;48.298;11.620;2024-01-25T12:51:01;97438.13;;;14.58;53.53
46724;BME280;32463;48.298;11.620;2024-01-25T12:53:49;97442.97;;;14.53;52.01
46724;BME280;32463;48.298;11.620;2024-01-25T12:56:36;97439.34;;;14.80;52.33
46724;BME280;32463;48.298;11.620;2024-01-25T12:59:23;97439.25;;;15.06;51.75
46724;BME280;32463;48.298;11.620;2024-01-25T13:02:09;97445.09;;;14.49;53.66
46724;BME280;32463;48.298;11.620;2024-01-25T13:04:56;97451.53;;;13.68;55.89
46724;BME280;32463;48.298;11.620;2024-01-25T13:07:43;97442.09;;;13.31;56.57
46724;BME280;32463;48.298;11.620;2024-01-25T13:10:30;97449.72;;;13.86;55.28
46724;BME280;32463;48.298;11.620;2024-01-25T13:13:17;97436.22;;;13.29;55.06
46724;BME280;32463;48.298;11.620;2024-01-25T13:16:04;97437.31;;;12.07;59.44
46724;BME280;32463;48.298;11.620;2024-01-25T13:18:51;97432.97;;;11.98;59.81
46724;BME280;32463;48.298;11.620;2024-01-25T13:21:37;97431.88;;;11.72;61.62
46724;BME280;32463;48.298;11.620;2024-01-25T13:24:24;97426.69;;;11.72;62.57
46724;BME280;32463;48.298;11.620;2024-01-25T13:27:11;97430.81;;;11.17;63.31
46724;BME280;32463;48.298;11.620;2024-01-25T13:29:58;97434.28;;;10.67;65.79
46724;BME280;32463;48.298;11.620;2024-01-25T13:32:45;97427.88;;;10.81;65.88
46724;BME280;32463;48.298;11.620;2024-01-25T13:35:32;97425.88;;;11.33;63.83
46724;BME280;32463;48.298;11.620;2024-01-25T13:38:19;97441.03;;;10.99;64.18
46724;BME280;32463;48.298;11.620;2024-01-25T13:41:06;97433.81;;;11.12;65.09
46724;BME280;32463;48.298;11.620;2024-01-25T13:43:53;97429.13;;;10.87;65.92
46724;BME280;32463;48.298;11.620;2024-01-25T13:46:39;97416.84;;;11.08;66.93
46724;BME280;32463;48.298;11.620;2024-01-25T13:49:26;97417.00;;;11.35;65.80
46724;BME280;32463;48.298;11.620;2024-01-25T13:52:19;97411.78;;;11.93;64.96
46724;BME280;32463;48.298;11.620;2024-01-25T13:55:07;97406.41;;;12.04;64.17
46724;BME280;32463;48.298;11.620;2024-01-25T13:57:54;97408.13;;;11.57;66.18
46724;BME280;32463;48.298;11.620;2024-01-25T14:00:40;97406.91;;;11.32;66.71
46724;BME280;32463;48.298;11.620;2024-01-25T14:03:27;97415.16;;;10.78;67.17
46724;BME280;32463;48.298;11.620;2024-01-25T14:06:15;97402.81;;;10.51;70.06
46724;BME280;32463;48.298;11.620;2024-01-25T14:09:01;97400.44;;;10.29;71.56
46724;BME280;32463;48.298;11.620;2024-01-25T14:11:49;97400.03;;;9.82;74.09
46724;BME280;32463;48.298;11.620;2024-01-25T14:14:36;97395.09;;;9.79;75.76
46724;BME280;32463;48.298;11.620;2024-01-25T14:17:24;97398.09;;;9.74;76.71
46724;BME280;32463;48.298;11.620;2024-01-25T14:20:11;97402.13;;;9.47;78.74
46724;BME280;32463;48.298;11.620;2024-01-25T14:22:58;97398.19;;;9.31;81.88
46724;BME280;32463;48.298;11.620;2024-01-25T14:25:45;97396.00;;;9.48;82.20
46724;BME280;32463;48.298;11.620;2024-01-25T14:28:32;97385.13;;;9.54;82.16
46724;BME280;32463;48.298;11.620;2024-01-25T14:31:18;97389.91;;;9.79;82.43
46724;BME280;32463;48.298;11.620;2024-01-25T14:34:07;97397.88;;;9.87;81.74